createdAt,value
2018-06-09T00:01:55.169Z,7.13
2018-06-09T00:04:23.763Z,8.87
2018-06-09T00:06:52.434Z,5.83
2018-06-09T00:09:20.990Z,10.20
2018-06-09T00:11:50.017Z,8.20
2018-06-09T00:14:18.805Z,7.03
2018-06-09T00:16:48.106Z,14.80
2018-06-09T00:19:16.646Z,12.17
2018-06-09T00:21:44.810Z,16.50
2018-06-09T00:24:13.378Z,13.53
2018-06-09T00:26:42.068Z,16.20
2018-06-09T00:29:10.851Z,27.53
2018-06-09T00:31:40.760Z,32.60
2018-06-09T00:34:09.333Z,16.83
2018-06-09T00:36:38.020Z,10.53
2018-06-09T00:39:07.932Z,16.07
2018-06-09T00:41:36.468Z,14.07
2018-06-09T00:44:05.130Z,9.50
2018-06-09T00:46:33.724Z,9.97
2018-06-09T00:49:03.201Z,9.43
2018-06-09T00:51:33.342Z,10.83
2018-06-09T00:54:02.670Z,12.53
2018-06-09T00:56:43.563Z,12.70
2018-06-09T00:59:47.371Z,12.17
2018-06-09T01:02:15.912Z,28.93
2018-06-09T01:04:44.376Z,11.67
2018-06-09T01:07:12.953Z,10.90
2018-06-09T01:09:41.594Z,14.83
2018-06-09T01:12:10.412Z,10.87
2018-06-09T01:14:39.065Z,15.00
2018-06-09T01:17:08.483Z,13.17
2018-06-09T01:19:37.418Z,12.60
2018-06-09T01:22:06.089Z,16.13
2018-06-09T01:24:34.731Z,13.03
2018-06-09T01:27:03.199Z,16.40
2018-06-09T01:29:31.873Z,12.13
2018-06-09T01:32:00.968Z,10.73
2018-06-09T01:34:30.123Z,8.47
2018-06-09T01:36:59.230Z,9.40
2018-06-09T01:39:27.808Z,10.13
2018-06-09T01:41:57.401Z,11.13
2018-06-09T01:44:25.990Z,9.60
2018-06-09T01:46:54.776Z,13.77
2018-06-09T01:49:24.052Z,12.50
2018-06-09T01:51:52.589Z,14.87
2018-06-09T01:54:21.093Z,28.50
2018-06-09T01:56:49.658Z,15.67
2018-06-09T01:59:19.528Z,30.37
2018-06-09T02:01:48.003Z,20.67
2018-06-09T02:04:16.887Z,14.40
2018-06-09T02:06:45.467Z,13.50
2018-06-09T02:09:13.884Z,21.67
2018-06-09T02:11:42.461Z,11.93
2018-06-09T02:14:10.997Z,10.53
2018-06-09T02:16:39.551Z,8.67
2018-06-09T02:19:08.115Z,11.90
2018-06-09T02:21:36.670Z,11.10
2018-06-09T02:24:05.158Z,9.77
2018-06-09T02:26:33.718Z,9.20
2018-06-09T02:29:02.379Z,9.47
2018-06-09T02:31:30.894Z,10.50
2018-06-09T02:33:59.439Z,9.70
2018-06-09T02:36:27.986Z,9.97
2018-06-09T02:38:56.563Z,11.00
2018-06-09T02:41:25.141Z,9.20
2018-06-09T02:43:53.719Z,9.73
2018-06-09T02:46:22.266Z,13.70
2018-06-09T02:48:50.773Z,9.07
2018-06-09T02:51:19.386Z,9.23
2018-06-09T02:53:47.917Z,8.40
2018-06-09T02:56:16.061Z,8.03
2018-06-09T02:58:44.743Z,9.17
2018-06-09T03:01:13.258Z,9.90
2018-06-09T03:03:41.926Z,13.33
2018-06-09T03:06:10.142Z,12.53
2018-06-09T03:08:38.753Z,8.60
2018-06-09T03:11:07.257Z,9.43
2018-06-09T03:13:35.928Z,17.40
2018-06-09T03:16:04.514Z,10.00
2018-06-09T03:18:33.007Z,9.57
2018-06-09T03:21:01.546Z,9.53
2018-06-09T03:23:30.050Z,11.50
2018-06-09T03:25:58.624Z,7.73
2018-06-09T03:28:27.355Z,9.40
2018-06-09T03:30:56.006Z,18.27
2018-06-09T03:33:24.527Z,15.37
2018-06-09T03:35:53.220Z,12.00
2018-06-09T03:38:21.669Z,9.40
2018-06-09T03:40:49.923Z,11.30
2018-06-09T03:43:18.579Z,11.60
2018-06-09T03:45:47.108Z,12.63
2018-06-09T03:48:15.764Z,8.73
2018-06-09T03:50:44.445Z,13.43
2018-06-09T03:53:12.972Z,10.97
2018-06-09T03:55:41.762Z,9.07
2018-06-09T03:58:10.195Z,11.23
2018-06-09T04:00:38.794Z,9.57
2018-06-09T04:03:07.396Z,10.07
2018-06-09T04:05:35.812Z,14.33
2018-06-09T04:08:04.282Z,11.53
2018-06-09T04:10:32.839Z,17.87
2018-06-09T04:13:01.307Z,10.33
2018-06-09T04:15:29.843Z,13.07
2018-06-09T04:17:58.253Z,14.23
2018-06-09T04:20:27.531Z,10.80
2018-06-09T04:22:56.045Z,8.27
2018-06-09T04:25:24.571Z,8.77
2018-06-09T04:27:53.109Z,12.73
2018-06-09T04:30:21.655Z,21.43
2018-06-09T04:32:50.191Z,20.03
2018-06-09T04:35:18.742Z,25.77
2018-06-09T04:37:47.201Z,17.13
2018-06-09T04:40:15.722Z,12.50
2018-06-09T04:42:44.285Z,26.93
2018-06-09T04:45:12.957Z,28.83
2018-06-09T04:47:41.741Z,32.80
2018-06-09T04:50:11.002Z,27.43
2018-06-09T04:52:39.526Z,16.13
2018-06-09T04:55:08.110Z,10.53
2018-06-09T04:57:36.773Z,9.80
2018-06-09T05:00:05.634Z,13.63
2018-06-09T05:02:34.192Z,10.27
2018-06-09T05:05:02.810Z,20.87
2018-06-09T05:07:31.307Z,12.00
2018-06-09T05:10:00.535Z,16.97
2018-06-09T05:12:29.003Z,12.10
2018-06-09T05:14:57.491Z,11.23
2018-06-09T05:17:26.154Z,10.97
2018-06-09T05:19:54.685Z,9.40
2018-06-09T05:22:23.309Z,11.07
2018-06-09T05:24:51.813Z,9.77
2018-06-09T05:27:19.985Z,11.87
2018-06-09T05:29:48.429Z,16.27
2018-06-09T05:32:16.880Z,28.50
2018-06-09T05:34:45.335Z,21.80
2018-06-09T05:37:13.819Z,12.13
2018-06-09T05:39:42.393Z,13.10
2018-06-09T05:42:10.863Z,14.33
2018-06-09T05:44:39.341Z,16.00
2018-06-09T05:47:07.582Z,22.70
2018-06-09T05:49:36.754Z,25.23
2018-06-09T05:52:05.501Z,22.87
2018-06-09T05:54:33.975Z,26.57
2018-06-09T05:57:02.601Z,17.40
2018-06-09T05:59:31.077Z,12.17
2018-06-09T06:01:59.646Z,25.47
2018-06-09T06:04:27.984Z,26.07
2018-06-09T06:06:56.795Z,22.30
2018-06-09T06:09:25.386Z,17.53
2018-06-09T06:11:53.963Z,19.80
2018-06-09T06:14:22.411Z,15.53
2018-06-09T06:16:51.664Z,17.50
2018-06-09T06:19:20.106Z,16.63
2018-06-09T06:21:48.590Z,19.50
2018-06-09T06:24:17.072Z,17.07
2018-06-09T06:26:45.541Z,22.43
2018-06-09T06:29:13.992Z,22.37
2018-06-09T06:31:42.528Z,16.87
2018-06-09T06:34:11.017Z,16.27
2018-06-09T06:36:39.874Z,21.57
2018-06-09T06:39:09.322Z,20.70
2018-06-09T06:41:38.062Z,20.07
2018-06-09T06:44:06.746Z,14.83
2018-06-09T06:46:36.038Z,11.27
2018-06-09T06:49:04.662Z,18.93
2018-06-09T06:51:33.203Z,21.10
2018-06-09T06:54:01.896Z,15.20
2018-06-09T06:56:30.406Z,18.50
2018-06-09T06:58:59.316Z,20.53
2018-06-09T07:01:27.817Z,15.10
2018-06-09T07:03:56.563Z,15.10
2018-06-09T07:06:25.008Z,16.60
2018-06-09T07:08:54.348Z,17.33
2018-06-09T07:11:23.228Z,12.33
2018-06-09T07:13:51.664Z,16.43
2018-06-09T07:16:20.312Z,15.23
2018-06-09T07:18:54.208Z,15.13
2018-06-09T07:21:22.708Z,15.23
2018-06-09T07:23:51.236Z,12.40
2018-06-09T07:26:20.998Z,16.33
2018-06-09T07:28:49.470Z,14.90
2018-06-09T07:31:17.902Z,16.00
2018-06-09T07:33:46.397Z,16.53
2018-06-09T07:36:15.182Z,17.67
2018-06-09T07:38:43.632Z,17.17
2018-06-09T07:41:11.823Z,13.73
2018-06-09T07:43:40.346Z,13.60
2018-06-09T07:46:09.692Z,15.73
2018-06-09T07:48:38.237Z,16.27
2018-06-09T07:51:06.736Z,16.07
2018-06-09T07:53:35.189Z,16.10
2018-06-09T07:56:03.702Z,15.43
2018-06-09T07:58:31.828Z,13.20
2018-06-09T08:01:00.382Z,10.40
2018-06-09T08:03:28.959Z,14.47
2018-06-09T08:05:57.574Z,9.77
2018-06-09T08:08:26.031Z,11.77
2018-06-09T08:10:54.515Z,14.23
2018-06-09T08:13:23.008Z,13.43
2018-06-09T08:15:51.505Z,11.20
2018-06-09T08:18:19.950Z,13.87
2018-06-09T08:20:48.448Z,14.40
2018-06-09T08:23:16.997Z,8.53
2018-06-09T08:25:45.475Z,10.67
2018-06-09T08:28:13.937Z,12.17
2018-06-09T08:30:49.043Z,12.18
2018-06-09T08:33:17.702Z,9.88
2018-06-09T08:35:45.893Z,11.93
2018-06-09T08:38:14.593Z,10.88
2018-06-09T08:40:43.147Z,10.68
2018-06-09T08:43:11.691Z,14.07
2018-06-09T08:45:40.490Z,10.43
2018-06-09T08:48:09.705Z,13.60
2018-06-09T08:50:38.307Z,13.25
2018-06-09T08:53:06.924Z,9.95
2018-06-09T08:55:35.714Z,14.58
2018-06-09T08:58:04.274Z,13.93
2018-06-09T09:00:33.042Z,12.45
2018-06-09T09:03:01.684Z,11.93
2018-06-09T09:05:30.179Z,13.72
2018-06-09T09:07:58.790Z,14.70
2018-06-09T09:10:27.456Z,11.35
2018-06-09T09:12:55.990Z,10.43
2018-06-09T09:15:24.443Z,13.25
2018-06-09T09:17:53.135Z,14.35
2018-06-09T09:20:21.739Z,13.30
2018-06-09T09:22:50.474Z,10.63
2018-06-09T09:25:18.999Z,11.65
2018-06-09T09:27:47.446Z,11.78
2018-06-09T09:30:15.907Z,11.60
2018-06-09T09:32:44.435Z,12.00
2018-06-09T09:35:12.831Z,12.55
2018-06-09T09:37:41.285Z,12.18
2018-06-09T09:40:09.853Z,12.03
2018-06-09T09:42:38.810Z,12.73
2018-06-09T09:45:07.377Z,13.03
2018-06-09T09:47:36.048Z,11.73
2018-06-09T09:50:04.770Z,13.75
2018-06-09T09:52:33.276Z,12.70
2018-06-09T09:55:01.753Z,9.73
2018-06-09T09:57:30.231Z,12.28
2018-06-09T09:59:58.728Z,12.65
2018-06-09T10:02:27.209Z,14.00
2018-06-09T10:04:55.764Z,13.03
2018-06-09T10:07:24.286Z,13.20
2018-06-09T10:09:52.781Z,13.90
2018-06-09T10:12:21.279Z,11.95
2018-06-09T10:14:49.754Z,12.80
2018-06-09T10:17:18.258Z,12.58
2018-06-09T10:19:46.825Z,13.25
2018-06-09T10:22:15.399Z,12.45
2018-06-09T10:24:44.152Z,11.15
2018-06-09T10:27:12.620Z,12.68
2018-06-09T10:29:40.762Z,10.80
2018-06-09T10:32:09.337Z,12.07
2018-06-09T10:34:38.818Z,13.10
2018-06-09T10:37:07.462Z,9.48
2018-06-09T10:39:36.004Z,9.73
2018-06-09T10:42:04.558Z,15.53
2018-06-09T10:44:33.039Z,12.75
2018-06-09T10:47:01.577Z,11.35
2018-06-09T10:49:30.058Z,13.05
2018-06-09T10:51:58.697Z,11.33
2018-06-09T10:54:27.295Z,14.15
2018-06-09T10:56:55.742Z,12.98
2018-06-09T10:59:24.269Z,9.53
2018-06-09T11:01:52.961Z,9.20
2018-06-09T11:04:21.421Z,12.50
2018-06-09T11:06:49.922Z,13.13
2018-06-09T11:09:18.371Z,13.60
2018-06-09T11:11:46.836Z,11.20
2018-06-09T11:14:16.020Z,12.70
2018-06-09T11:16:44.494Z,13.43
2018-06-09T11:19:13.025Z,11.95
2018-06-09T11:21:41.535Z,13.08
2018-06-09T11:24:09.999Z,10.43
2018-06-09T11:26:38.470Z,10.08
2018-06-09T11:29:07.019Z,13.43
2018-06-09T11:31:35.523Z,14.30
2018-06-09T11:34:03.985Z,10.63
2018-06-09T11:36:32.466Z,12.25
2018-06-09T11:39:00.910Z,13.28
2018-06-09T11:41:29.474Z,10.85
2018-06-09T11:43:58.137Z,9.88
2018-06-09T11:46:26.682Z,13.22
2018-06-09T11:48:56.621Z,9.43
2018-06-09T11:51:25.140Z,14.15
2018-06-09T11:53:53.641Z,14.53
2018-06-09T11:56:23.029Z,12.55
2018-06-09T11:58:51.595Z,9.53
2018-06-09T12:01:20.096Z,11.85
2018-06-09T12:03:48.610Z,10.55
2018-06-09T12:06:17.270Z,8.90
2018-06-09T12:08:45.771Z,10.70
2018-06-09T12:11:14.241Z,8.40
2018-06-09T12:13:43.550Z,10.10
2018-06-09T12:16:11.709Z,10.35
2018-06-09T12:18:40.243Z,9.65
2018-06-09T12:21:08.733Z,12.47
2018-06-09T12:23:38.049Z,13.05
2018-06-09T12:26:06.564Z,10.63
2018-06-09T12:28:35.081Z,9.40
2018-06-09T12:31:03.577Z,8.35
2018-06-09T12:33:32.210Z,10.58
2018-06-09T12:36:00.780Z,11.38
2018-06-09T12:38:29.278Z,9.28
2018-06-09T12:40:58.047Z,9.33
2018-06-09T12:43:26.510Z,10.18
2018-06-09T12:45:54.992Z,11.68
2018-06-09T12:48:23.539Z,11.28
2018-06-09T12:50:52.008Z,12.15
2018-06-09T12:53:20.489Z,8.53
2018-06-09T12:55:49.066Z,10.90
2018-06-09T12:58:17.515Z,11.30
2018-06-09T13:00:46.163Z,11.48
2018-06-09T13:03:14.613Z,10.85
2018-06-09T13:05:43.311Z,11.08
2018-06-09T13:08:11.787Z,11.22
2018-06-09T13:10:40.274Z,9.50
2018-06-09T13:13:08.825Z,11.20
2018-06-09T13:15:37.371Z,10.45
2018-06-09T13:18:06.685Z,11.25
2018-06-09T13:20:35.270Z,11.00
2018-06-09T13:23:03.774Z,9.88
2018-06-09T13:25:32.446Z,10.63
2018-06-09T13:28:00.967Z,10.65
2018-06-09T13:30:48.019Z,11.35
2018-06-09T13:33:16.581Z,12.33
2018-06-09T13:35:45.206Z,11.78
2018-06-09T13:38:13.624Z,10.10
2018-06-09T13:40:42.185Z,8.85
2018-06-09T13:43:10.638Z,11.50
2018-06-09T13:45:39.141Z,10.82
2018-06-09T13:48:07.572Z,8.25
2018-06-09T13:50:36.088Z,11.70
2018-06-09T13:53:04.522Z,12.30
2018-06-09T13:55:33.222Z,11.60
2018-06-09T13:58:01.745Z,12.88
2018-06-09T14:00:30.324Z,10.60
2018-06-09T14:02:59.003Z,8.68
2018-06-09T14:05:27.640Z,9.38
2018-06-09T14:07:55.766Z,12.43
2018-06-09T14:10:24.353Z,11.65
2018-06-09T14:12:52.966Z,14.07
2018-06-09T14:15:21.833Z,15.28
2018-06-09T14:17:50.459Z,11.12
2018-06-09T14:20:18.925Z,12.20
2018-06-09T14:22:47.214Z,15.40
2018-06-09T14:25:15.770Z,14.25
2018-06-09T14:27:44.206Z,10.05
2018-06-09T14:30:13.082Z,12.88
2018-06-09T14:32:41.632Z,13.03
2018-06-09T14:35:10.182Z,16.82
2018-06-09T14:37:38.648Z,14.85
2018-06-09T14:40:07.505Z,9.93
2018-06-09T14:42:35.896Z,12.33
2018-06-09T14:45:04.466Z,15.43
2018-06-09T14:47:33.580Z,13.00
2018-06-09T14:50:02.299Z,11.88
2018-06-09T14:52:30.962Z,14.25
2018-06-09T14:54:59.430Z,18.00
2018-06-09T14:57:28.198Z,17.80
2018-06-09T14:59:56.307Z,16.12
2018-06-09T15:02:25.005Z,12.43
2018-06-09T15:04:53.758Z,13.65
2018-06-09T15:07:22.439Z,17.90
2018-06-09T15:09:50.893Z,17.23
2018-06-09T15:12:19.568Z,11.75
2018-06-09T15:14:48.149Z,9.48
2018-06-09T15:17:16.674Z,11.43
2018-06-09T15:19:45.142Z,13.95
2018-06-09T15:22:13.343Z,13.53
2018-06-09T15:24:42.194Z,8.20
2018-06-09T15:27:10.703Z,8.58
2018-06-09T15:29:39.343Z,11.35
2018-06-09T15:32:07.903Z,10.88
2018-06-09T15:34:36.366Z,10.03
2018-06-09T15:37:05.026Z,6.25
2018-06-09T15:39:33.525Z,8.23
2018-06-09T15:42:02.262Z,13.28
2018-06-09T15:44:30.865Z,9.80
2018-06-09T15:46:59.400Z,8.25
2018-06-09T15:49:28.171Z,10.95
2018-06-09T15:51:56.738Z,12.82
2018-06-09T15:54:25.188Z,10.35
2018-06-09T15:56:53.849Z,14.58
2018-06-09T15:59:22.307Z,12.75
2018-06-09T16:01:50.804Z,11.50
2018-06-09T16:04:19.314Z,8.45
2018-06-09T16:06:47.809Z,14.10
2018-06-09T16:09:17.063Z,12.80
2018-06-09T16:11:45.554Z,15.28
2018-06-09T16:14:14.157Z,12.07
2018-06-09T16:16:42.706Z,10.88
2018-06-09T16:19:11.293Z,10.10
2018-06-09T16:21:39.739Z,18.55
2018-06-09T16:24:08.278Z,13.20
2018-06-09T16:26:36.872Z,11.38
2018-06-09T16:29:05.633Z,11.93
2018-06-09T16:31:34.139Z,11.88
2018-06-09T16:34:02.909Z,10.10
2018-06-09T16:36:31.616Z,10.48
2018-06-09T16:39:00.188Z,14.53
2018-06-09T16:41:28.901Z,11.08
2018-06-09T16:43:57.475Z,15.38
2018-06-09T16:46:26.018Z,15.72
2018-06-09T16:48:54.586Z,10.65
2018-06-09T16:51:23.039Z,14.15
2018-06-09T16:53:51.558Z,14.90
2018-06-09T16:56:20.133Z,9.35
2018-06-09T16:58:48.702Z,10.15
2018-06-09T17:01:17.394Z,9.35
2018-06-09T17:03:45.952Z,14.43
2018-06-09T17:06:14.086Z,11.57
2018-06-09T17:08:43.189Z,8.90
2018-06-09T17:11:11.773Z,7.22
2018-06-09T17:13:40.332Z,9.68
2018-06-09T17:16:08.973Z,14.78
2018-06-09T17:18:37.369Z,7.95
2018-06-09T17:21:05.987Z,8.68
2018-06-09T17:23:34.411Z,12.28
2018-06-09T17:26:02.596Z,8.55
2018-06-09T17:28:31.230Z,11.10
2018-06-09T17:30:59.686Z,15.80
2018-06-09T17:33:28.403Z,20.10
2018-06-09T17:35:56.985Z,12.28
2018-06-09T17:38:25.555Z,12.63
2018-06-09T17:40:54.009Z,10.23
2018-06-09T17:43:22.534Z,7.58
2018-06-09T17:45:50.974Z,10.75
2018-06-09T17:48:19.714Z,8.63
2018-06-09T17:50:48.301Z,9.68
2018-06-09T17:53:16.915Z,11.35
2018-06-09T17:55:45.412Z,10.25
2018-06-09T17:58:13.928Z,12.68
2018-06-09T18:00:42.726Z,14.38
2018-06-09T18:03:11.273Z,12.78
2018-06-09T18:05:39.773Z,12.07
2018-06-09T18:08:08.281Z,12.28
2018-06-09T18:10:36.837Z,11.18
2018-06-09T18:13:05.510Z,10.85
2018-06-09T18:15:34.131Z,9.33
2018-06-09T18:18:02.590Z,10.10
2018-06-09T18:20:31.035Z,7.83
2018-06-09T18:22:59.224Z,7.15
2018-06-09T18:25:27.753Z,8.63
2018-06-09T18:27:56.324Z,9.77
2018-06-09T18:30:24.902Z,9.27
2018-06-09T18:32:53.418Z,13.53
2018-06-09T18:35:22.007Z,6.23
2018-06-09T18:37:50.719Z,11.53
2018-06-09T18:40:19.237Z,15.50
2018-06-09T18:42:48.639Z,18.57
2018-06-09T18:45:17.110Z,16.20
2018-06-09T18:47:45.712Z,15.00
2018-06-09T18:50:14.414Z,8.07
2018-06-09T18:52:42.882Z,14.87
2018-06-09T18:55:11.389Z,12.93
2018-06-09T18:57:40.026Z,8.57
2018-06-09T19:00:08.555Z,12.33
2018-06-09T19:02:37.045Z,6.03
2018-06-09T19:05:05.768Z,5.50
2018-06-09T19:07:34.289Z,10.50
2018-06-09T19:10:02.960Z,6.27
2018-06-09T19:12:31.665Z,5.10
2018-06-09T19:15:00.135Z,11.13
2018-06-09T19:17:28.814Z,11.90
2018-06-09T19:19:58.430Z,12.57
2018-06-09T19:22:28.378Z,11.30
2018-06-09T19:24:57.127Z,11.47
2018-06-09T19:27:25.638Z,10.57
2018-06-09T19:29:54.122Z,13.57
2018-06-09T19:32:22.694Z,9.27
2018-06-09T19:34:51.187Z,8.73
2018-06-09T19:37:19.647Z,6.50
2018-06-09T19:39:49.009Z,5.47
2018-06-09T19:42:17.713Z,4.97
2018-06-09T19:44:46.333Z,6.43
2018-06-09T19:47:14.911Z,7.30
2018-06-09T19:49:43.446Z,9.40
2018-06-09T19:52:12.069Z,11.00
2018-06-09T19:54:40.933Z,9.70
2018-06-09T19:57:10.159Z,5.70
2018-06-09T19:59:38.808Z,5.87
2018-06-09T20:02:07.345Z,6.53
2018-06-09T20:04:35.885Z,7.80
2018-06-09T20:07:04.611Z,14.67
2018-06-09T20:09:33.232Z,16.67
2018-06-09T20:12:01.708Z,10.03
2018-06-09T20:14:30.257Z,12.93
2018-06-09T20:16:58.533Z,6.47
2018-06-09T20:19:26.986Z,18.13
2018-06-09T20:21:55.576Z,13.03
2018-06-09T20:24:24.208Z,18.40
2018-06-09T20:26:52.777Z,9.60
2018-06-09T20:29:21.122Z,8.50
2018-06-09T20:31:49.752Z,10.00
2018-06-09T20:34:18.335Z,8.33
2018-06-09T20:36:46.556Z,10.33
2018-06-09T20:39:15.039Z,7.67
2018-06-09T20:41:43.663Z,15.90
2018-06-09T20:44:12.231Z,13.03
2018-06-09T20:46:40.516Z,20.27
2018-06-09T20:49:09.171Z,9.73
2018-06-09T20:51:37.828Z,17.07
2018-06-09T20:54:06.475Z,7.83
2018-06-09T20:56:34.956Z,17.40
2018-06-09T20:59:03.461Z,15.30
2018-06-09T21:01:33.041Z,20.47
2018-06-09T21:04:03.320Z,13.53
2018-06-09T21:06:31.864Z,26.57
2018-06-09T21:09:14.557Z,25.17
2018-06-09T21:11:43.723Z,20.17
2018-06-09T21:14:12.202Z,13.30
2018-06-09T21:16:40.715Z,22.30
2018-06-09T21:19:09.219Z,18.03
2018-06-09T21:21:51.924Z,24.97
2018-06-09T21:24:20.497Z,29.57
2018-06-09T21:26:55.458Z,31.67
2018-06-09T21:29:29.204Z,27.93
2018-06-09T21:32:02.454Z,19.73
2018-06-09T21:34:47.673Z,11.77
2018-06-09T21:37:20.702Z,11.37
2018-06-09T21:40:01.674Z,7.47
2018-06-09T21:42:34.792Z,13.13
2018-06-09T21:45:09.884Z,21.93
2018-06-09T21:47:38.448Z,32.30
2018-06-09T21:50:12.631Z,29.80
2018-06-09T21:52:41.092Z,31.33
2018-06-09T21:55:09.593Z,29.87
2018-06-09T21:57:38.047Z,12.83
2018-06-09T22:00:12.463Z,9.63
2018-06-09T22:02:40.960Z,8.47
2018-06-09T22:05:09.494Z,8.83
2018-06-09T22:07:38.000Z,8.57
2018-06-09T22:10:06.578Z,15.43
2018-06-09T22:12:36.698Z,25.67
2018-06-09T22:15:05.259Z,31.40
2018-06-09T22:17:33.839Z,25.13
2018-06-09T22:20:03.175Z,25.47
2018-06-09T22:25:45.372Z,10.87
2018-06-09T22:28:30.526Z,8.23
2018-06-09T22:30:59.155Z,27.73
2018-06-09T22:33:32.624Z,29.90
2018-06-09T22:36:03.395Z,28.10
2018-06-09T22:38:31.766Z,28.40
2018-06-09T22:40:59.928Z,29.73
2018-06-09T22:43:29.205Z,28.53
2018-06-09T22:45:57.758Z,30.00
2018-06-09T22:48:26.294Z,28.93
2018-06-09T22:50:56.128Z,32.17
2018-06-09T22:53:24.660Z,30.23
2018-06-09T22:55:53.353Z,31.20
2018-06-09T22:59:07.007Z,26.33
2018-06-09T23:01:35.470Z,26.43
2018-06-09T23:04:04.288Z,19.60
2018-06-09T23:06:32.635Z,22.73
2018-06-09T23:09:01.380Z,29.63
2018-06-09T23:11:33.869Z,12.30
2018-06-09T23:14:02.811Z,15.27
2018-06-09T23:16:39.572Z,18.83
2018-06-09T23:19:55.143Z,25.07
2018-06-09T23:22:23.698Z,29.27
2018-06-09T23:24:52.181Z,30.87
2018-06-09T23:27:26.219Z,23.23
2018-06-09T23:29:55.401Z,29.97
2018-06-09T23:32:23.835Z,14.97
2018-06-09T23:34:52.259Z,24.80
2018-06-09T23:37:20.965Z,14.13
2018-06-09T23:39:49.534Z,21.03
2018-06-09T23:42:18.018Z,10.87
2018-06-09T23:44:47.336Z,8.80
2018-06-09T23:47:16.251Z,10.50
2018-06-09T23:49:44.978Z,8.97
2018-06-09T23:52:13.638Z,11.47
2018-06-09T23:54:42.302Z,20.27
2018-06-09T23:57:11.843Z,14.17
2018-06-09T23:59:40.343Z,11.33
